Time;durP1;ratioP1;P1;durP2;ratioP2;P2;SDS_P1;SDS_P2;PMS_P1;PMS_P2;Temp;Humidity;BMP_temperature;BMP_pressure;BME280_temperature;BME280_humidity;BME280_pressure;Samples;Min_cycle;Max_cycle;Signal;HPM_P1;HPM_P2
2022/01/01 00:00:12;;;;;;;1.70;1.60;;;18.50;50.90;;;;;;5048833;28;20213;-83
2022/01/01 00:02:40;;;;;;;1.38;1.27;;;18.50;50.90;;;;;;5042132;28;20199;-87
2022/01/01 00:05:08;;;;;;;1.73;1.48;;;18.50;50.80;;;;;;5041675;28;20182;-84
2022/01/01 00:07:35;;;;;;;2.03;1.70;;;18.40;51.00;;;;;;5009110;28;20159;-83
2022/01/01 00:10:11;;;;;;;1.70;1.60;;;18.50;50.90;;;;;;5025454;28;20681;-85
2022/01/01 00:12:47;;;;;;;1.75;1.55;;;18.50;50.90;;;;;;5024232;28;20174;-83
2022/01/01 00:15:14;;;;;;;1.90;1.63;;;18.50;50.80;;;;;;5043994;28;20650;-84
2022/01/01 00:17:44;;;;;;;1.65;1.35;;;18.50;50.80;;;;;;5060862;28;20691;-83
2022/01/01 00:20:10;;;;;;;1.70;1.60;;;18.40;50.90;;;;;;5061310;28;20256;-83
2022/01/01 00:22:43;;;;;;;1.70;1.60;;;18.40;50.80;;;;;;5061500;28;20151;-83
2022/01/01 00:25:11;;;;;;;1.90;1.70;;;18.40;50.90;;;;;;4985540;28;20330;-84
2022/01/01 00:27:39;;;;;;;2.28;1.70;;;18.40;51.00;;;;;;5001318;28;20267;-83
2022/01/01 00:30:06;;;;;;;1.30;1.20;;;18.40;51.00;;;;;;5017824;28;20207;-83
2022/01/01 00:32:34;;;;;;;2.03;1.60;;;18.40;51.10;;;;;;4998014;28;20184;-84
2022/01/01 00:35:00;;;;;;;1.80;1.60;;;18.40;51.00;;;;;;4998144;28;20707;-83
2022/01/01 00:37:29;;;;;;;2.20;1.60;;;18.40;51.00;;;;;;4998703;28;20256;-83
2022/01/01 00:39:56;;;;;;;1.98;1.60;;;18.40;51.10;;;;;;4998366;28;20188;-83
2022/01/01 00:42:28;;;;;;;1.60;1.50;;;18.40;51.00;;;;;;4982169;28;20199;-83
2022/01/01 00:44:56;;;;;;;1.98;1.70;;;18.40;50.90;;;;;;4981759;28;20189;-83
2022/01/01 00:47:24;;;;;;;1.80;1.70;;;18.40;51.00;;;;;;4960573;28;20344;-83
2022/01/01 00:49:53;;;;;;;1.88;1.77;;;18.40;51.00;;;;;;4959077;29;20222;-83
2022/01/01 00:52:26;;;;;;;2.03;1.60;;;18.40;50.90;;;;;;4943346;29;20225;-83
2022/01/01 00:54:58;;;;;;;1.75;1.58;;;18.40;51.00;;;;;;4943565;29;20198;-84
2022/01/01 00:57:29;;;;;;;1.40;1.30;;;18.40;51.10;;;;;;5036940;28;20184;-84
2022/01/01 00:59:57;;;;;;;2.17;1.80;;;18.30;51.10;;;;;;5056077;28;20256;-84
2022/01/01 01:02:23;;;;;;;2.20;1.80;;;18.40;51.30;;;;;;5043715;28;20173;-83
2022/01/01 01:04:49;;;;;;;1.98;1.60;;;18.40;51.20;;;;;;5043168;28;20557;-84
2022/01/01 01:07:15;;;;;;;1.77;1.63;;;18.30;51.20;;;;;;5044721;28;20162;-84
2022/01/01 01:09:46;;;;;;;2.30;1.80;;;18.40;51.10;;;;;;5039089;28;20189;-84
2022/01/01 01:12:20;;;;;;;1.63;1.52;;;18.30;51.20;;;;;;5097265;28;20216;-84
2022/01/01 01:14:53;;;;;;;1.75;1.60;;;18.40;51.10;;;;;;5097228;28;20247;-83
2022/01/01 01:17:31;;;;;;;1.63;1.45;;;18.30;51.10;;;;;;5062542;28;20166;-84
2022/01/01 01:20:22;;;;;;;1.98;1.73;;;18.30;51.20;;;;;;5097329;28;20184;-83
2022/01/01 01:23:09;;;;;;;1.63;1.50;;;18.30;51.00;;;;;;5064063;28;20172;-84
2022/01/01 01:25:40;;;;;;;1.98;1.77;;;18.30;51.10;;;;;;5093779;28;20264;-83
2022/01/01 01:28:08;;;;;;;2.28;1.70;;;18.30;51.30;;;;;;5096674;28;20154;-83
2022/01/01 01:30:42;;;;;;;1.48;1.33;;;18.30;51.10;;;;;;5040011;28;20183;-83
2022/01/01 01:33:11;;;;;;;1.80;1.70;;;18.30;51.10;;;;;;5039631;28;20209;-84
2022/01/01 01:35:40;;;;;;;1.70;1.60;;;18.30;51.20;;;;;;5059752;28;20182;-85
2022/01/01 01:38:09;;;;;;;1.80;1.58;;;18.30;51.10;;;;;;5039984;28;20178;-84
2022/01/01 01:40:42;;;;;;;1.70;1.60;;;18.30;51.20;;;;;;5023363;28;20209;-85
2022/01/01 01:43:11;;;;;;;2.05;1.63;;;18.30;51.10;;;;;;4985100;28;20184;-85
2022/01/01 01:45:48;;;;;;;2.00;1.80;;;18.30;51.30;;;;;;4962195;28;20591;-87
2022/01/01 01:48:14;;;;;;;1.63;1.48;;;18.30;51.20;;;;;;4939199;29;20184;-85
2022/01/01 01:50:40;;;;;;;1.70;1.58;;;18.30;51.30;;;;;;4937379;29;20236;-84
2022/01/01 01:53:06;;;;;;;1.75;1.60;;;18.30;51.40;;;;;;4937217;29;20232;-85
2022/01/01 01:55:38;;;;;;;2.30;1.70;;;18.20;51.40;;;;;;4936985;29;20181;-84
2022/01/01 01:58:05;;;;;;;2.10;1.60;;;18.30;51.30;;;;;;4937253;29;20653;-84
2022/01/01 02:03:12;;;;;;;2.00;1.80;;;18.30;51.20;;;;;;4991821;28;20234;-84
2022/01/01 02:05:41;;;;;;;1.95;1.73;;;18.30;51.40;;;;;;4948519;29;20554;-83
2022/01/01 02:08:07;;;;;;;2.20;2.00;;;18.30;51.30;;;;;;4914823;29;20214;-85
2022/01/01 02:10:36;;;;;;;1.90;1.70;;;18.30;51.30;;;;;;4914855;29;20650;-84
2022/01/01 02:13:12;;;;;;;1.90;1.70;;;18.20;51.30;;;;;;4897113;29;20207;-84
2022/01/01 02:16:11;;;;;;;1.98;1.70;;;18.30;51.30;;;;;;4920522;28;20669;-85
2022/01/01 02:18:31;;;;;;;1.85;1.67;;;18.30;51.40;;;;;;4975610;28;20268;-84
2022/01/01 02:20:56;;;;;;;1.88;1.63;;;18.30;51.30;;;;;;4975949;28;20664;-85
2022/01/01 02:23:27;;;;;;;2.03;1.83;;;18.20;51.50;;;;;;4995138;28;20191;-84
2022/01/01 02:25:59;;;;;;;2.05;1.85;;;18.20;51.30;;;;;;4983599;28;20215;-84
2022/01/01 02:28:30;;;;;;;1.90;1.60;;;18.30;51.30;;;;;;4998523;28;20183;-84
2022/01/01 02:31:04;;;;;;;2.08;1.65;;;18.30;51.40;;;;;;4994968;28;20529;-84
2022/01/01 02:33:35;;;;;;;1.80;1.65;;;18.30;51.30;;;;;;4956195;29;20212;-84
2022/01/01 02:36:00;;;;;;;2.03;1.67;;;18.30;51.40;;;;;;4960935;28;20263;-83
2022/01/01 02:38:44;;;;;;;1.75;1.60;;;18.30;51.30;;;;;;4959462;28;20255;-84
2022/01/01 02:41:12;;;;;;;2.00;1.80;;;18.20;51.40;;;;;;4956360;29;20735;-84
2022/01/01 02:43:50;;;;;;;2.38;1.77;;;18.30;51.20;;;;;;4969952;28;20192;-82
2022/01/01 02:46:16;;;;;;;1.60;1.50;;;18.30;51.30;;;;;;4994540;28;20604;-83
2022/01/01 02:48:47;;;;;;;1.92;1.70;;;18.30;51.40;;;;;;4994277;28;20188;-83
2022/01/01 02:51:15;;;;;;;1.73;1.63;;;18.20;51.40;;;;;;5010852;28;20214;-83
2022/01/01 02:53:44;;;;;;;1.60;1.50;;;18.20;51.30;;;;;;5006598;28;20248;-84
2022/01/01 02:56:21;;;;;;;1.92;1.70;;;18.20;51.40;;;;;;4978501;28;20180;-85
2022/01/01 02:58:49;;;;;;;1.92;1.55;;;18.20;51.30;;;;;;4995040;28;20183;-84
2022/01/01 03:01:15;;;;;;;1.60;1.50;;;18.20;51.50;;;;;;5004602;28;20680;-83
2022/01/01 03:03:44;;;;;;;1.67;1.50;;;18.20;51.40;;;;;;5033933;28;20265;-83
2022/01/01 03:06:20;;;;;;;2.15;1.70;;;18.20;51.40;;;;;;5017382;28;20182;-83
2022/01/01 03:08:56;;;;;;;1.80;1.58;;;18.20;51.50;;;;;;4994747;28;20191;-84
2022/01/01 03:11:22;;;;;;;1.55;1.40;;;18.20;51.40;;;;;;4978415;28;20183;-84
2022/01/01 03:13:47;;;;;;;1.77;1.50;;;18.30;51.60;;;;;;4978047;28;20214;-83
2022/01/01 03:16:34;;;;;;;1.67;1.55;;;18.20;51.40;;;;;;4959495;28;20180;-85
2022/01/01 03:19:13;;;;;;;1.95;1.70;;;18.20;51.50;;;;;;4998195;28;20601;-84
2022/01/01 03:21:41;;;;;;;1.70;1.48;;;18.20;51.60;;;;;;4955514;29;20251;-84
2022/01/01 03:24:08;;;;;;;1.70;1.60;;;18.20;51.50;;;;;;4971693;28;20192;-84
2022/01/01 03:26:33;;;;;;;1.73;1.60;;;18.20;51.50;;;;;;4966174;28;20189;-83
2022/01/01 03:29:05;;;;;;;1.85;1.65;;;18.20;51.50;;;;;;4968559;28;20190;-83
2022/01/01 03:31:36;;;;;;;1.70;1.60;;;18.20;51.50;;;;;;4952165;29;20213;-84
2022/01/01 03:34:05;;;;;;;1.90;1.70;;;18.20;51.40;;;;;;4948501;28;20214;-85
2022/01/01 03:36:34;;;;;;;1.90;1.70;;;18.20;51.50;;;;;;4951449;29;20370;-85
2022/01/01 03:39:03;;;;;;;1.73;1.50;;;18.20;51.50;;;;;;4942729;28;20639;-83
2022/01/01 03:41:32;;;;;;;2.33;1.80;;;18.10;51.60;;;;;;4976981;28;20191;-84
2022/01/01 03:44:01;;;;;;;1.50;1.40;;;18.20;51.70;;;;;;4977750;28;20293;-84
2022/01/01 03:46:26;;;;;;;1.90;1.67;;;18.10;51.50;;;;;;4981143;28;20179;-83
2022/01/01 03:48:55;;;;;;;2.38;1.80;;;18.10;51.70;;;;;;5000498;28;20182;-83
2022/01/01 03:51:20;;;;;;;2.05;1.70;;;18.10;51.50;;;;;;5002485;28;20218;-84
2022/01/01 03:53:47;;;;;;;2.10;1.90;;;18.20;51.50;;;;;;5000274;28;20214;-84
2022/01/01 03:56:16;;;;;;;1.80;1.70;;;18.10;51.40;;;;;;5000078;28;20264;-84
2022/01/01 03:58:50;;;;;;;1.75;1.63;;;18.20;51.60;;;;;;5016519;28;20211;-84
2022/01/01 04:01:16;;;;;;;1.63;1.40;;;18.10;51.40;;;;;;4976897;28;20234;-84
2022/01/01 04:03:42;;;;;;;2.20;1.75;;;18.20;51.70;;;;;;4993598;28;20183;-84
2022/01/01 04:06:08;;;;;;;2.22;1.80;;;18.10;51.70;;;;;;4983551;28;20184;-83
2022/01/01 04:08:35;;;;;;;1.80;1.70;;;18.10;51.80;;;;;;4988879;28;20327;-83
2022/01/01 04:11:07;;;;;;;1.73;1.63;;;18.10;51.60;;;;;;4974003;28;20192;-84
2022/01/01 04:13:33;;;;;;;1.70;1.60;;;18.10;51.80;;;;;;4992014;28;20243;-83
2022/01/01 04:16:03;;;;;;;1.85;1.50;;;18.10;51.70;;;;;;5009779;28;20191;-83
2022/01/01 04:18:38;;;;;;;1.65;1.55;;;18.20;51.90;;;;;;4993210;28;20182;-84
2022/01/01 04:21:08;;;;;;;2.15;1.75;;;18.10;51.70;;;;;;5025317;28;20191;-83
2022/01/01 04:23:38;;;;;;;1.75;1.55;;;18.10;51.70;;;;;;4973817;28;20192;-85
2022/01/01 04:26:14;;;;;;;2.03;1.83;;;18.10;51.70;;;;;;5006125;28;20336;-84
2022/01/01 04:28:44;;;;;;;1.90;1.58;;;18.10;51.60;;;;;;4992764;28;20184;-84
2022/01/01 04:31:22;;;;;;;1.33;1.23;;;18.10;51.70;;;;;;4981355;28;20188;-84
2022/01/01 04:33:53;;;;;;;1.95;1.60;;;18.10;51.80;;;;;;5032310;28;20206;-84
2022/01/01 04:36:23;;;;;;;2.10;1.65;;;18.10;51.70;;;;;;5035568;28;20568;-83
2022/01/01 04:39:01;;;;;;;2.20;1.83;;;18.10;51.70;;;;;;5052068;28;20667;-85
2022/01/01 04:41:30;;;;;;;2.08;1.88;;;18.10;51.70;;;;;;5051449;28;20177;-84
2022/01/01 04:44:01;;;;;;;1.63;1.52;;;18.10;51.90;;;;;;5051921;28;20182;-83
2022/01/01 04:46:38;;;;;;;1.90;1.70;;;18.00;51.70;;;;;;5015887;28;20183;-84
2022/01/01 04:49:15;;;;;;;2.00;1.70;;;18.10;51.70;;;;;;5031948;28;20186;-85
2022/01/01 04:51:41;;;;;;;1.58;1.48;;;18.10;51.90;;;;;;4991854;28;20234;-84
2022/01/01 04:54:14;;;;;;;1.95;1.63;;;18.10;51.90;;;;;;5015501;28;20208;-85
2022/01/01 04:56:43;;;;;;;1.60;1.50;;;18.10;51.80;;;;;;5055904;28;20268;-84
2022/01/01 04:59:13;;;;;;;2.22;1.80;;;18.00;51.90;;;;;;5055518;28;20161;-83
2022/01/01 05:01:41;;;;;;;1.60;1.48;;;18.10;51.80;;;;;;5071488;28;20177;-84
2022/01/01 05:04:08;;;;;;;2.03;1.67;;;18.10;52.00;;;;;;5071700;28;20173;-83
2022/01/01 05:06:41;;;;;;;1.70;1.58;;;18.10;51.90;;;;;;5072013;28;20177;-84
2022/01/01 05:09:10;;;;;;;2.00;1.80;;;18.00;51.80;;;;;;5015001;28;20719;-84
2022/01/01 05:11:47;;;;;;;2.22;1.70;;;18.10;52.00;;;;;;5014897;28;20183;-85
2022/01/01 05:14:12;;;;;;;1.67;1.58;;;18.10;51.90;;;;;;5040281;28;20256;-83
2022/01/01 05:16:39;;;;;;;1.67;1.50;;;18.10;51.80;;;;;;5051518;28;20273;-84
2022/01/01 05:19:07;;;;;;;2.00;1.65;;;18.10;52.00;;;;;;5068022;28;20236;-82
2022/01/01 05:21:36;;;;;;;2.00;1.80;;;18.00;51.90;;;;;;5068094;28;20293;-83
2022/01/01 05:24:05;;;;;;;2.00;1.80;;;18.10;52.00;;;;;;5028029;28;20187;-83
2022/01/01 05:26:33;;;;;;;1.73;1.60;;;18.00;51.70;;;;;;5044966;28;20557;-84
2022/01/01 05:29:06;;;;;;;2.15;1.67;;;18.00;52.10;;;;;;5045122;28;20646;-84
2022/01/01 05:31:33;;;;;;;2.28;1.77;;;18.00;51.90;;;;;;5027960;28;20191;-85
2022/01/01 05:34:03;;;;;;;1.83;1.48;;;18.00;51.70;;;;;;4991317;28;20219;-83
2022/01/01 05:36:31;;;;;;;1.98;1.50;;;18.10;51.90;;;;;;4976063;28;20176;-84
2022/01/01 05:39:08;;;;;;;2.17;1.45;;;18.00;52.00;;;;;;4960531;28;20186;-83
2022/01/01 05:41:37;;;;;;;1.73;1.58;;;18.00;51.70;;;;;;4994955;28;20186;-84
2022/01/01 05:44:03;;;;;;;2.08;1.80;;;18.00;52.00;;;;;;4972205;28;20184;-82
2022/01/01 05:46:35;;;;;;;2.03;1.58;;;18.10;52.00;;;;;;4972343;28;20180;-84
2022/01/01 05:49:03;;;;;;;1.70;1.60;;;18.00;51.90;;;;;;4952549;29;20200;-82
2022/01/01 05:51:32;;;;;;;2.00;1.67;;;18.00;52.10;;;;;;4969206;28;20257;-83
2022/01/01 05:54:01;;;;;;;2.08;1.63;;;18.00;52.00;;;;;;4958465;28;20356;-83
2022/01/01 05:56:30;;;;;;;1.70;1.50;;;18.00;51.90;;;;;;4940557;29;20192;-85
2022/01/01 05:58:56;;;;;;;1.80;1.50;;;18.00;51.90;;;;;;4941154;29;20209;-84
2022/01/01 06:01:24;;;;;;;2.28;1.55;;;18.00;51.80;;;;;;4957225;28;20269;-84
2022/01/01 06:03:54;;;;;;;1.65;1.52;;;18.00;51.80;;;;;;4993103;28;20188;-84
2022/01/01 06:06:19;;;;;;;1.80;1.65;;;17.90;51.80;;;;;;5015185;28;20151;-84
2022/01/01 06:08:47;;;;;;;1.60;1.40;;;18.00;52.00;;;;;;5015313;28;20179;-84
2022/01/01 06:11:17;;;;;;;2.05;1.75;;;18.00;52.00;;;;;;4999296;28;20168;-84
2022/01/01 06:13:45;;;;;;;1.73;1.60;;;18.00;51.90;;;;;;5014683;28;20261;-84
2022/01/01 06:16:11;;;;;;;1.55;1.40;;;18.10;51.90;;;;;;5034621;28;20206;-83
2022/01/01 06:18:36;;;;;;;1.90;1.70;;;18.00;51.80;;;;;;5002042;28;20245;-83
2022/01/01 06:21:05;;;;;;;1.75;1.50;;;18.00;51.80;;;;;;5032975;28;20187;-84
2022/01/01 06:23:31;;;;;;;1.50;1.40;;;18.00;51.90;;;;;;5018731;28;20190;-83
2022/01/01 06:25:56;;;;;;;1.95;1.63;;;18.00;51.90;;;;;;5034527;28;20233;-83
2022/01/01 06:28:25;;;;;;;1.60;1.50;;;18.00;51.80;;;;;;5017990;28;20186;-83
2022/01/01 06:30:50;;;;;;;1.65;1.52;;;18.00;51.80;;;;;;5002055;28;20186;-84
2022/01/01 06:33:17;;;;;;;1.75;1.35;;;18.00;51.80;;;;;;5028979;28;20572;-83
2022/01/01 06:35:46;;;;;;;2.03;1.52;;;18.00;51.90;;;;;;5041281;28;20181;-85
2022/01/01 06:38:15;;;;;;;1.90;1.75;;;18.00;51.70;;;;;;5034485;28;20187;-84
2022/01/01 06:40:41;;;;;;;1.92;1.73;;;18.00;52.00;;;;;;5001617;28;20178;-84
2022/01/01 06:43:09;;;;;;;1.77;1.38;;;18.00;52.00;;;;;;5001497;28;20237;-83
2022/01/01 06:45:42;;;;;;;1.60;1.45;;;18.00;52.00;;;;;;5017742;28;20652;-84
2022/01/01 06:48:11;;;;;;;2.35;1.83;;;18.00;51.90;;;;;;5017814;28;20218;-84
2022/01/01 06:50:37;;;;;;;1.55;1.45;;;18.00;51.90;;;;;;5014255;28;20214;-83
2022/01/01 06:53:03;;;;;;;1.85;1.65;;;18.00;51.90;;;;;;5051526;28;20690;-84
2022/01/01 06:55:32;;;;;;;1.80;1.55;;;18.00;52.00;;;;;;5056391;28;20183;-85
2022/01/01 06:57:58;;;;;;;1.60;1.50;;;18.00;51.80;;;;;;5056351;28;20177;-84
2022/01/01 07:00:25;;;;;;;1.75;1.55;;;18.00;51.80;;;;;;5072615;28;20494;-83
2022/01/01 07:02:53;;;;;;;1.70;1.60;;;18.00;51.90;;;;;;5055979;28;20166;-85
2022/01/01 07:05:22;;;;;;;1.73;1.40;;;18.00;51.80;;;;;;5056224;28;20174;-84
2022/01/01 07:07:50;;;;;;;1.95;1.60;;;17.90;51.90;;;;;;5072697;28;20206;-83
2022/01/01 07:10:16;;;;;;;1.75;1.63;;;18.00;51.90;;;;;;5055794;28;20549;-84
2022/01/01 07:12:44;;;;;;;1.50;1.40;;;18.00;51.70;;;;;;5056334;28;20169;-84
2022/01/01 07:15:15;;;;;;;1.77;1.40;;;18.00;51.70;;;;;;5089332;28;20292;-83
2022/01/01 07:17:44;;;;;;;1.45;1.35;;;18.00;51.90;;;;;;5088827;28;20180;-83
2022/01/01 07:20:10;;;;;;;1.60;1.50;;;18.00;51.60;;;;;;5089409;28;20285;-84
2022/01/01 07:22:40;;;;;;;1.80;1.63;;;18.10;51.10;;;;;;5109190;28;20627;-83
2022/01/01 07:25:11;;;;;;;1.60;1.50;;;18.10;51.00;;;;;;5076634;28;20169;-83
2022/01/01 07:27:37;;;;;;;1.98;1.60;;;18.10;51.10;;;;;;5068560;28;20182;-85
2022/01/01 07:30:08;;;;;;;1.52;1.42;;;18.20;51.10;;;;;;5068999;28;20718;-83
2022/01/01 07:32:39;;;;;;;1.52;1.38;;;18.20;51.00;;;;;;5052719;28;20186;-83
2022/01/01 07:35:18;;;;;;;1.83;1.40;;;18.20;50.80;;;;;;5052230;28;20218;-85
2022/01/01 07:37:44;;;;;;;1.42;1.33;;;18.30;50.90;;;;;;5052412;28;20174;-84
2022/01/01 07:40:16;;;;;;;1.42;1.33;;;18.30;50.70;;;;;;5052104;28;20300;-84
2022/01/01 07:42:42;;;;;;;1.80;1.60;;;18.30;50.60;;;;;;5032161;28;20277;-84
2022/01/01 07:45:13;;;;;;;1.35;1.13;;;18.30;50.70;;;;;;5048802;28;20305;-83
2022/01/01 07:47:48;;;;;;;1.48;1.38;;;18.30;50.50;;;;;;5048608;28;20199;-85
2022/01/01 07:50:15;;;;;;;1.50;1.40;;;18.40;50.50;;;;;;5048809;28;20192;-83
2022/01/01 07:52:42;;;;;;;1.40;1.30;;;18.40;50.50;;;;;;4995438;28;1166863;-83
2022/01/01 07:55:09;;;;;;;1.30;1.20;;;18.40;50.40;;;;;;5036576;28;20208;-84
2022/01/01 07:57:37;;;;;;;1.60;1.40;;;18.40;50.40;;;;;;5039950;28;20202;-83
2022/01/01 08:00:06;;;;;;;1.80;1.65;;;18.40;50.50;;;;;;5076351;28;20157;-83
2022/01/01 08:02:45;;;;;;;1.48;1.38;;;18.40;50.40;;;;;;5060178;28;20176;-84
2022/01/01 08:05:18;;;;;;;1.48;1.38;;;18.40;50.30;;;;;;5039399;28;20260;-84
2022/01/01 08:07:50;;;;;;;1.73;1.63;;;18.50;50.10;;;;;;5056554;28;20189;-83
2022/01/01 08:10:15;;;;;;;1.55;1.30;;;18.50;50.20;;;;;;5055961;28;20178;-85
2022/01/01 08:12:47;;;;;;;1.48;1.38;;;18.40;50.00;;;;;;5075637;28;20432;-83
2022/01/01 08:15:13;;;;;;;1.48;1.38;;;18.50;50.00;;;;;;5092085;28;20216;-83
2022/01/01 08:17:48;;;;;;;1.48;1.38;;;18.50;49.90;;;;;;5075839;28;20230;-84
2022/01/01 08:20:16;;;;;;;1.70;1.52;;;18.60;50.10;;;;;;5036957;28;20220;-84
2022/01/01 08:22:45;;;;;;;1.55;1.42;;;18.50;49.90;;;;;;5036123;28;20629;-84
2022/01/01 08:25:20;;;;;;;1.50;1.40;;;18.60;50.00;;;;;;5069036;28;20188;-84
2022/01/01 08:27:45;;;;;;;1.40;1.30;;;18.60;49.90;;;;;;5068058;28;20257;-85
2022/01/01 08:30:14;;;;;;;1.30;1.20;;;18.60;49.80;;;;;;5068878;28;20194;-84
2022/01/01 08:32:49;;;;;;;1.67;1.30;;;18.60;49.80;;;;;;5035828;28;20178;-84
2022/01/01 08:35:37;;;;;;;1.25;1.10;;;18.70;49.80;;;;;;5068238;28;20212;-84
2022/01/01 08:38:07;;;;;;;1.40;1.30;;;18.60;49.80;;;;;;5052216;28;20158;-84
2022/01/01 08:40:33;;;;;;;1.42;1.33;;;18.60;49.80;;;;;;5034858;28;20286;-84
2022/01/01 08:43:03;;;;;;;1.65;1.55;;;18.60;49.70;;;;;;5052027;28;20711;-83
2022/01/01 08:45:30;;;;;;;1.42;1.33;;;18.70;49.80;;;;;;4992677;28;20184;-82
2022/01/01 08:47:55;;;;;;;1.60;1.50;;;18.70;49.70;;;;;;4976395;28;20233;-83
2022/01/01 08:50:21;;;;;;;1.40;1.30;;;18.70;49.40;;;;;;4983602;28;20333;-86
2022/01/01 08:52:48;;;;;;;1.98;1.73;;;18.70;49.50;;;;;;5015512;28;20218;-83
2022/01/01 08:55:13;;;;;;;1.60;1.50;;;18.70;49.50;;;;;;4999051;28;20217;-85
2022/01/01 08:57:42;;;;;;;1.60;1.50;;;18.70;49.40;;;;;;5015608;28;20569;-83
2022/01/01 09:00:18;;;;;;;2.25;1.40;;;18.70;49.30;;;;;;5015317;28;20639;-85
2022/01/01 09:02:47;;;;;;;1.40;1.30;;;18.70;49.30;;;;;;4998831;28;20548;-84
2022/01/01 09:05:15;;;;;;;1.50;1.40;;;18.70;49.20;;;;;;4972987;28;20184;-83
2022/01/01 09:07:45;;;;;;;1.15;1.05;;;18.70;49.20;;;;;;4972823;28;20679;-84
2022/01/01 09:10:12;;;;;;;1.52;1.42;;;18.80;49.20;;;;;;4956889;28;20200;-85
2022/01/01 09:12:43;;;;;;;1.30;1.20;;;18.80;49.20;;;;;;4940958;28;20219;-84
2022/01/01 09:15:12;;;;;;;1.27;1.10;;;18.80;49.10;;;;;;4957066;28;20223;-84
2022/01/01 09:18:08;;;;;;;1.40;1.30;;;18.80;49.10;;;;;;5014330;28;20297;-83
2022/01/01 09:20:36;;;;;;;1.58;1.25;;;18.80;49.10;;;;;;5026956;28;20208;-83
2022/01/01 09:23:17;;;;;;;;;;;;;;;;;;;;;
2022/01/01 09:25:43;;;;;;;1.38;1.27;;;18.80;49.10;;;;;;5028376;28;20189;-83
2022/01/01 09:28:08;;;;;;;1.30;1.20;;;18.80;49.00;;;;;;5048461;28;20273;-85
2022/01/01 09:30:34;;;;;;;1.20;1.10;;;18.80;48.90;;;;;;5015125;28;20332;-85
2022/01/01 09:33:29;;;;;;;1.38;1.20;;;18.80;48.90;;;;;;5014745;28;20202;-83
2022/01/01 09:36:14;;;;;;;1.30;1.20;;;18.90;48.90;;;;;;5012685;28;20645;-84
2022/01/01 09:38:40;;;;;;;1.33;1.23;;;18.80;48.70;;;;;;5066169;28;20204;-85
2022/01/01 09:41:05;;;;;;;1.20;1.10;;;18.90;48.90;;;;;;5071809;28;20512;-85
2022/01/01 09:43:34;;;;;;;1.30;1.20;;;18.70;48.70;;;;;;5054797;28;20536;-84
2022/01/01 09:46:05;;;;;;;1.30;1.20;;;18.90;49.60;;;;;;5051124;28;20348;-83
2022/01/01 09:48:40;;;;;;;1.40;1.30;;;18.80;49.50;;;;;;5034745;28;20190;-84
2022/01/01 09:51:11;;;;;;;1.67;1.42;;;18.80;48.60;;;;;;5034607;28;20278;-83
2022/01/01 09:53:42;;;;;;;1.40;1.30;;;18.90;48.80;;;;;;5035396;28;20346;-84
2022/01/01 09:56:08;;;;;;;1.13;1.02;;;18.80;48.70;;;;;;5051453;28;20605;-85
2022/01/01 09:58:37;;;;;;;1.40;1.30;;;18.90;48.60;;;;;;5034651;28;20284;-83
2022/01/01 10:01:10;;;;;;;1.38;1.27;;;18.80;48.60;;;;;;5018230;28;20669;-85
2022/01/01 10:03:44;;;;;;;1.30;1.20;;;18.90;48.50;;;;;;5015776;28;20281;-83
2022/01/01 10:06:15;;;;;;;1.50;1.25;;;18.90;48.70;;;;;;5011487;28;20187;-84
2022/01/01 10:08:55;;;;;;;1.67;1.42;;;18.80;48.50;;;;;;5010819;28;20278;-83
2022/01/01 10:11:37;;;;;;;1.55;1.20;;;18.80;48.50;;;;;;5007379;28;20184;-84
2022/01/01 10:14:11;;;;;;;1.42;1.23;;;18.90;48.60;;;;;;5008326;28;20223;-84
2022/01/01 10:16:45;;;;;;;1.50;1.40;;;18.90;48.50;;;;;;4977971;28;20255;-84
2022/01/01 10:19:13;;;;;;;1.42;1.33;;;18.90;48.60;;;;;;4956016;28;20184;-84
2022/01/01 10:21:41;;;;;;;1.40;1.30;;;18.90;48.50;;;;;;4972465;28;20181;-83
2022/01/01 10:24:29;;;;;;;1.30;1.20;;;18.90;48.30;;;;;;4987918;28;20611;-83
2022/01/01 10:29:51;;;;;;;1.48;1.30;;;18.90;48.30;;;;;;4986383;28;20177;-84
2022/01/01 10:32:17;;;;;;;1.25;1.15;;;18.90;48.20;;;;;;4988837;28;20188;-83
2022/01/01 10:34:47;;;;;;;1.30;1.20;;;19.00;48.20;;;;;;5023001;28;20214;-83
2022/01/01 10:37:15;;;;;;;1.33;1.20;;;18.90;48.30;;;;;;5009587;28;20621;-85
2022/01/01 10:39:52;;;;;;;1.20;1.10;;;18.90;48.20;;;;;;4985703;28;20191;-85
2022/01/01 10:42:21;;;;;;;1.40;1.30;;;19.00;48.30;;;;;;5011353;28;20176;-83
2022/01/01 10:45:01;;;;;;;1.13;1.02;;;18.90;48.00;;;;;;5011623;28;20275;-84
2022/01/01 10:47:33;;;;;;;1.30;1.20;;;19.00;48.20;;;;;;4968028;28;20195;-84
2022/01/01 10:52:45;;;;;;;1.40;1.30;;;18.90;48.10;;;;;;4982837;28;20220;-84
2022/01/01 10:55:19;;;;;;;1.10;1.00;;;19.00;48.10;;;;;;4987758;28;20749;-83
2022/01/01 10:57:55;;;;;;;1.35;1.25;;;19.00;48.00;;;;;;5010831;28;20266;-83
2022/01/01 11:00:25;;;;;;;1.13;1.05;;;19.00;48.10;;;;;;5011174;28;20758;-84
2022/01/01 11:03:00;;;;;;;1.33;1.20;;;19.00;47.80;;;;;;4994441;28;20267;-84
2022/01/01 11:05:34;;;;;;;1.52;1.27;;;19.00;47.70;;;;;;4974491;28;20176;-83
2022/01/01 11:08:02;;;;;;;1.17;1.08;;;19.00;47.70;;;;;;4991526;28;20220;-83
2022/01/01 11:10:30;;;;;;;1.27;1.17;;;19.10;47.80;;;;;;4975112;28;20268;-84
2022/01/01 11:12:56;;;;;;;1.40;1.30;;;19.00;47.90;;;;;;4982475;28;20275;-83
2022/01/01 11:15:22;;;;;;;1.20;1.10;;;19.10;48.00;;;;;;4978281;28;20895;-84
2022/01/01 11:17:48;;;;;;;1.25;1.15;;;19.10;47.80;;;;;;5026047;28;20636;-83
2022/01/01 11:20:20;;;;;;;1.38;1.20;;;19.00;47.80;;;;;;5054739;28;20193;-83
2022/01/01 11:22:46;;;;;;;1.10;1.00;;;19.00;47.80;;;;;;5033632;28;20218;-85
2022/01/01 11:25:21;;;;;;;1.45;1.27;;;19.10;47.70;;;;;;5033762;28;20187;-85
2022/01/01 11:27:53;;;;;;;1.20;1.10;;;19.10;47.50;;;;;;5015327;28;20641;-83
2022/01/01 11:30:26;;;;;;;1.40;1.30;;;19.10;48.50;;;;;;5013780;28;20638;-84
2022/01/01 11:33:09;;;;;;;1.40;1.30;;;19.10;47.70;;;;;;4994235;28;20191;-83
2022/01/01 11:35:59;;;;;;;1.30;1.20;;;19.10;47.40;;;;;;4986510;28;20189;-85
2022/01/01 11:38:32;;;;;;;1.50;1.40;;;19.10;47.60;;;;;;4990035;28;20365;-83
2022/01/01 11:41:17;;;;;;;2.25;1.10;;;19.10;47.40;;;;;;4971326;28;20185;-83
2022/01/01 11:43:54;;;;;;;1.27;1.10;;;19.10;47.50;;;;;;4974009;28;20189;-83
2022/01/01 11:46:30;;;;;;;1.52;1.30;;;19.10;47.70;;;;;;4958381;28;20717;-84
2022/01/01 11:49:03;;;;;;;1.05;1.05;;;19.10;47.60;;;;;;4954755;28;20200;-86
2022/01/01 11:51:38;;;;;;;1.40;1.30;;;19.10;48.20;;;;;;4954595;29;20217;-83
2022/01/01 11:54:38;;;;;;;1.27;1.17;;;19.10;47.60;;;;;;4942434;29;20209;-85
2022/01/01 11:57:25;;;;;;;1.35;1.25;;;19.10;47.50;;;;;;4917155;29;20182;-83
2022/01/01 12:00:18;;;;;;;1.92;1.20;;;19.00;47.40;;;;;;4933023;29;20187;-85
2022/01/01 12:03:09;;;;;;;1.20;1.10;;;19.10;47.60;;;;;;4936239;29;20201;-85
2022/01/01 12:05:35;;;;;;;1.35;1.25;;;19.10;47.60;;;;;;4951957;29;20154;-84
2022/01/01 12:08:04;;;;;;;1.40;1.30;;;19.10;47.30;;;;;;4936123;29;20189;-83
2022/01/01 12:10:35;;;;;;;1.45;1.35;;;19.00;47.50;;;;;;4920063;29;20178;-84
2022/01/01 12:13:12;;;;;;;1.40;1.20;;;19.10;47.40;;;;;;4916401;29;20187;-83
2022/01/01 12:15:52;;;;;;;1.35;1.25;;;19.10;47.10;;;;;;4919778;29;20194;-83
2022/01/01 12:18:22;;;;;;;1.30;1.20;;;19.10;47.20;;;;;;4935578;29;20233;-84
2022/01/01 12:20:52;;;;;;;1.35;1.20;;;19.10;47.30;;;;;;4936029;29;20178;-85
2022/01/01 12:23:26;;;;;;;1.08;1.00;;;19.10;47.30;;;;;;4954932;29;20523;-84
2022/01/01 12:25:53;;;;;;;0.98;0.98;;;19.10;47.10;;;;;;4935150;29;20182;-83
2022/01/01 12:28:27;;;;;;;1.17;1.08;;;19.00;46.90;;;;;;4955879;28;20523;-84
2022/01/01 12:30:58;;;;;;;1.58;1.30;;;19.10;47.10;;;;;;4957653;28;20195;-85
2022/01/01 12:33:46;;;;;;;1.23;1.13;;;19.10;47.10;;;;;;4935001;29;20572;-84
2022/01/01 12:36:17;;;;;;;1.20;1.10;;;19.10;47.40;;;;;;4900192;29;20191;-84
2022/01/01 12:39:18;;;;;;;1.48;1.38;;;19.20;47.80;;;;;;4900488;29;20777;-84
2022/01/01 12:41:48;;;;;;;1.38;1.27;;;19.10;47.10;;;;;;4879717;29;20183;-84
2022/01/01 12:44:23;;;;;;;1.48;1.38;;;19.10;47.20;;;;;;4897201;29;20218;-84
2022/01/01 12:46:55;;;;;;;0.98;0.98;;;19.10;47.00;;;;;;4878249;29;20194;-83
2022/01/01 12:49:32;;;;;;;1.20;1.10;;;19.10;47.00;;;;;;4884870;29;20188;-84
2022/01/01 12:52:05;;;;;;;1.33;1.23;;;19.10;47.10;;;;;;4862952;29;20219;-83
2022/01/01 12:54:42;;;;;;;1.30;1.20;;;19.10;46.80;;;;;;4893176;29;20211;-84
2022/01/01 12:57:13;;;;;;;1.15;1.05;;;19.20;46.90;;;;;;4881668;29;20191;-84
2022/01/01 12:59:42;;;;;;;1.20;1.10;;;19.10;46.80;;;;;;4875582;29;20188;-83
2022/01/01 13:02:09;;;;;;;1.23;1.13;;;19.10;46.70;;;;;;4889982;29;20181;-84
2022/01/01 13:04:37;;;;;;;1.20;1.10;;;19.20;46.70;;;;;;4886100;29;20192;-84
2022/01/01 13:07:08;;;;;;;1.10;1.00;;;19.10;46.50;;;;;;4910412;29;20201;-85
2022/01/01 13:09:37;;;;;;;1.25;1.15;;;19.10;46.70;;;;;;4915850;29;20167;-83
2022/01/01 13:12:08;;;;;;;1.88;1.30;;;19.20;46.70;;;;;;4931059;29;20284;-83
2022/01/01 13:14:37;;;;;;;1.27;1.17;;;19.20;47.00;;;;;;4981477;28;20705;-85